Time;durP1;ratioP1;P1;durP2;ratioP2;P2;SDS_P1;SDS_P2;PMS_P1;PMS_P2;Temp;Humidity;BMP_temperature;BMP_pressure;BME280_temperature;BME280_humidity;BME280_pressure;Samples;Min_cycle;Max_cycle;Signal;HPM_P1;HPM_P2
2024/02/14 00:00:18;;;;;;;;;;;;;;;7.46;100.00;101200.53;5055548;28;19916;-76
2024/02/14 00:02:44;;;;;;;;;;;;;;;7.48;100.00;101209.16;5070332;28;19952;-76
2024/02/14 00:05:10;;;;;;;;;;;;;;;7.49;100.00;101203.09;5074919;28;19923;-76
2024/02/14 00:07:36;;;;;;;;;;;;;;;7.53;100.00;101190.84;5074638;28;20497;-76
2024/02/14 00:10:01;;;;;;;;;;;;;;;7.57;100.00;101196.84;5074617;28;19924;-76
2024/02/14 00:12:26;;;;;;;;;;;;;;;7.56;100.00;101177.72;5075152;28;19920;-76
2024/02/14 00:14:52;;;;;;;;;;;;;;;7.57;100.00;101202.06;5073442;28;20224;-76
2024/02/14 00:17:17;;;;;;;;;;;;;;;7.57;100.00;101199.44;5073678;28;19977;-76
2024/02/14 00:19:42;;;;;;;;;;;;;;;7.58;100.00;101198.53;5074880;28;19969;-76
2024/02/14 00:22:07;;;;;;;;;;;;;;;7.60;100.00;101188.94;5056572;28;19971;-76
2024/02/14 00:24:33;;;;;;;;;;;;;;;7.65;100.00;101198.34;5056428;28;19921;-76
2024/02/14 00:27:00;;;;;;;;;;;;;;;7.63;100.00;101188.88;5055831;28;19920;-76
2024/02/14 00:29:25;;;;;;;;;;;;;;;7.62;100.00;101179.31;5056846;28;19917;-76
2024/02/14 00:31:50;;;;;;;;;;;;;;;7.64;100.00;101195.78;5056476;28;20216;-76
2024/02/14 00:34:16;;;;;;;;;;;;;;;7.66;100.00;101176.63;5056840;28;19923;-76
2024/02/14 00:36:41;;;;;;;;;;;;;;;7.66;100.00;101175.78;5056070;28;19927;-76
2024/02/14 00:39:09;;;;;;;;;;;;;;;7.67;100.00;101182.69;5041252;28;19918;-76
2024/02/14 00:41:35;;;;;;;;;;;;;;;7.72;100.00;101198.25;5050359;28;20064;-76
2024/02/14 00:44:00;;;;;;;;;;;;;;;7.74;100.00;101180.81;5056272;28;19924;-76
2024/02/14 00:46:25;;;;;;;;;;;;;;;7.75;100.00;101191.19;5050885;28;19932;-76
2024/02/14 00:48:51;;;;;;;;;;;;;;;7.76;100.00;101187.69;5054280;28;19924;-76
2024/02/14 00:51:16;;;;;;;;;;;;;;;7.78;100.00;101185.91;5053576;28;19919;-76
2024/02/14 00:53:41;;;;;;;;;;;;;;;7.78;100.00;101185.91;5059633;28;19929;-76
2024/02/14 00:56:07;;;;;;;;;;;;;;;7.79;100.00;101194.59;5052894;28;19962;-76
2024/02/14 00:58:32;;;;;;;;;;;;;;;7.81;100.00;101190.19;5054957;28;19920;-76
2024/02/14 01:00:57;;;;;;;;;;;;;;;7.81;100.00;101185.84;5055384;28;19955;-76
2024/02/14 01:03:23;;;;;;;;;;;;;;;7.83;100.00;101181.44;5052016;28;19925;-76
2024/02/14 01:05:48;;;;;;;;;;;;;;;7.86;100.00;101189.19;5056309;28;19924;-76
2024/02/14 01:08:14;;;;;;;;;;;;;;;7.86;100.00;101191.81;5055810;28;19963;-76
2024/02/14 01:10:39;;;;;;;;;;;;;;;7.88;100.00;101197.84;5070108;28;19909;-76
2024/02/14 01:13:06;;;;;;;;;;;;;;;7.91;100.00;101196.03;5051782;28;19928;-76
2024/02/14 01:15:31;;;;;;;;;;;;;;;7.92;100.00;101203.00;5037478;28;19966;-76
2024/02/14 01:17:56;;;;;;;;;;;;;;;7.94;100.00;101198.59;5038258;28;20220;-76
2024/02/14 01:20:22;;;;;;;;;;;;;;;7.95;100.00;101197.69;5052471;28;20192;-76
2024/02/14 01:22:47;;;;;;;;;;;;;;;7.94;100.00;101199.44;5048383;28;20256;-76
2024/02/14 01:25:12;;;;;;;;;;;;;;;7.99;100.00;101200.19;5035716;28;20009;-76
2024/02/14 01:27:39;;;;;;;;;;;;;;;7.99;100.00;101199.34;5045117;28;19995;-76
2024/02/14 01:30:05;;;;;;;;;;;;;;;7.99;100.00;101204.56;5037715;28;20117;-76
2024/02/14 01:32:30;;;;;;;;;;;;;;;8.00;100.00;101201.88;5043954;28;19921;-76
2024/02/14 01:34:56;;;;;;;;;;;;;;;8.00;100.00;101204.50;5051063;28;19927;-76
2024/02/14 01:37:21;;;;;;;;;;;;;;;8.01;100.00;101203.63;5055857;28;20168;-76
2024/02/14 01:39:46;;;;;;;;;;;;;;;8.00;100.00;101207.09;5057748;28;19916;-76
2024/02/14 01:42:12;;;;;;;;;;;;;;;8.03;100.00;101195.75;5055359;28;19920;-76
2024/02/14 01:44:37;;;;;;;;;;;;;;;8.05;100.00;101212.22;5056142;28;19963;-76
2024/02/14 01:47:02;;;;;;;;;;;;;;;8.06;100.00;101211.34;5053939;28;19921;-76
2024/02/14 01:49:28;;;;;;;;;;;;;;;8.06;100.00;101208.72;5047744;28;19927;-76
2024/02/14 01:51:55;;;;;;;;;;;;;;;8.08;100.00;101206.94;5045789;28;19925;-76
2024/02/14 01:54:20;;;;;;;;;;;;;;;8.11;100.00;101216.44;5041961;28;19921;-76
2024/02/14 01:56:45;;;;;;;;;;;;;;;8.12;100.00;101213.78;5046380;28;19921;-76
2024/02/14 01:59:10;;;;;;;;;;;;;;;8.12;100.00;101207.72;5036852;28;19921;-76
2024/02/14 02:01:36;;;;;;;;;;;;;;;8.12;100.00;101213.78;5038779;28;19932;-76
2024/02/14 02:04:01;;;;;;;;;;;;;;;8.11;100.00;101225.09;5054805;28;19992;-76
2024/02/14 02:06:27;;;;;;;;;;;;;;;8.13;100.00;101218.13;5035891;28;20134;-76
2024/02/14 02:08:52;;;;;;;;;;;;;;;8.15;100.00;101223.28;5042181;28;19925;-76
2024/02/14 02:11:18;;;;;;;;;;;;;;;8.15;100.00;101213.72;5057264;28;19959;-76
2024/02/14 02:13:43;;;;;;;;;;;;;;;8.17;100.00;101227.59;5044389;28;19921;-76
2024/02/14 02:16:09;;;;;;;;;;;;;;;8.19;100.00;101219.72;5050358;28;20247;-76
2024/02/14 02:18:34;;;;;;;;;;;;;;;8.20;100.00;101230.09;5051480;28;19921;-76
2024/02/14 02:20:59;;;;;;;;;;;;;;;8.19;100.00;101225.78;5044130;28;19921;-76
2024/02/14 02:23:25;;;;;;;;;;;;;;;8.21;100.00;101218.78;5053968;28;20251;-76
2024/02/14 02:25:50;;;;;;;;;;;;;;;8.23;100.00;101227.41;5047394;28;20106;-76
2024/02/14 02:28:15;;;;;;;;;;;;;;;8.23;100.00;101221.34;5044860;28;19920;-76
2024/02/14 02:30:41;;;;;;;;;;;;;;;8.24;100.00;101234.38;5038406;28;20239;-76
2024/02/14 02:33:07;;;;;;;;;;;;;;;8.26;100.00;101236.94;5044157;28;19928;-76
2024/02/14 02:35:32;;;;;;;;;;;;;;;8.27;100.00;101243.84;5044192;28;20256;-76
2024/02/14 02:37:58;;;;;;;;;;;;;;;8.29;100.00;101233.38;5052312;28;19921;-76
2024/02/14 02:40:24;;;;;;;;;;;;;;;8.31;100.00;101242.88;5042441;28;19921;-76
2024/02/14 02:42:50;;;;;;;;;;;;;;;8.33;100.00;101237.63;5042156;28;19920;-76
2024/02/14 02:45:15;;;;;;;;;;;;;;;8.34;100.00;101241.97;5039702;28;20323;-76
2024/02/14 02:47:40;;;;;;;;;;;;;;;8.33;100.00;101238.50;5038645;28;19920;-76
2024/02/14 02:50:07;;;;;;;;;;;;;;;8.36;100.00;101248.00;5042383;28;19921;-76
2024/02/14 02:52:33;;;;;;;;;;;;;;;8.37;100.00;101239.28;5038856;28;19944;-76
2024/02/14 02:54:58;;;;;;;;;;;;;;;8.42;100.00;101248.75;5044710;28;20232;-76
2024/02/14 02:57:23;;;;;;;;;;;;;;;8.43;100.00;101241.75;5039116;28;19927;-76
2024/02/14 02:59:48;;;;;;;;;;;;;;;8.45;100.00;101240.81;5035982;28;19955;-76
2024/02/14 03:02:14;;;;;;;;;;;;;;;8.49;100.00;101243.34;5035411;28;19921;-76
2024/02/14 03:04:40;;;;;;;;;;;;;;;8.49;100.00;101246.81;5049925;28;20164;-76
2024/02/14 03:07:08;;;;;;;;;;;;;;;8.50;100.00;101252.91;5033785;28;19929;-76
2024/02/14 03:09:34;;;;;;;;;;;;;;;8.51;100.00;101252.84;5052876;28;20201;-76
2024/02/14 03:11:59;;;;;;;;;;;;;;;8.55;100.00;101256.25;5036898;28;19928;-76
2024/02/14 03:14:24;;;;;;;;;;;;;;;8.55;100.00;101259.72;5054016;28;20204;-76
2024/02/14 03:16:50;;;;;;;;;;;;;;;8.58;100.00;101262.25;5053861;28;19920;-76
2024/02/14 03:19:15;;;;;;;;;;;;;;;8.61;100.00;101243.06;5057925;28;20007;-76
2024/02/14 03:21:40;;;;;;;;;;;;;;;8.64;100.00;101261.22;5041308;28;20279;-76
2024/02/14 03:24:09;;;;;;;;;;;;;;;8.66;100.00;101267.28;5045256;28;19990;-76
2024/02/14 03:26:34;;;;;;;;;;;;;;;8.68;100.00;101269.84;5036852;28;19921;-76
2024/02/14 03:29:00;;;;;;;;;;;;;;;8.71;100.00;101277.59;5042241;28;20220;-76
2024/02/14 03:31:26;;;;;;;;;;;;;;;8.72;100.00;101274.09;5036949;28;19921;-76
2024/02/14 03:33:51;;;;;;;;;;;;;;;8.71;100.00;101268.00;5041122;28;19921;-76
2024/02/14 03:36:16;;;;;;;;;;;;;;;8.71;100.00;101267.16;5038235;28;19921;-76
2024/02/14 03:38:42;;;;;;;;;;;;;;;8.73;100.00;101263.63;5046063;28;20120;-76
2024/02/14 03:41:07;;;;;;;;;;;;;;;8.77;100.00;101273.09;5061110;28;19967;-76
2024/02/14 03:43:33;;;;;;;;;;;;;;;8.78;100.00;101269.56;5045310;28;19924;-76
2024/02/14 03:45:58;;;;;;;;;;;;;;;8.76;100.00;101276.59;5056307;28;19998;-76
2024/02/14 03:48:23;;;;;;;;;;;;;;;8.77;100.00;101267.88;5060147;28;19978;-76
2024/02/14 03:50:48;;;;;;;;;;;;;;;8.82;100.00;101275.56;5056058;28;19932;-76
2024/02/14 03:53:14;;;;;;;;;;;;;;;8.85;100.00;101272.88;5055166;28;19940;-76
2024/02/14 03:55:40;;;;;;;;;;;;;;;8.90;100.00;101278.84;5056933;28;20224;-76
2024/02/14 03:58:06;;;;;;;;;;;;;;;8.89;100.00;101284.09;5045647;28;19921;-76
2024/02/14 04:00:31;;;;;;;;;;;;;;;8.92;100.00;101278.81;5057031;28;20224;-75
2024/02/14 04:02:59;;;;;;;;;;;;;;;8.93;100.00;101272.66;5056396;28;19921;-75
2024/02/14 04:05:27;;;;;;;;;;;;;;;8.92;100.00;101292.72;5043058;28;19952;-76
2024/02/14 04:07:54;;;;;;;;;;;;;;;8.92;100.00;101294.47;5048999;28;19924;-76
2024/02/14 04:10:19;;;;;;;;;;;;;;;8.93;100.00;101291.84;5058600;28;19913;-76
2024/02/14 04:12:44;;;;;;;;;;;;;;;8.95;100.00;101297.00;5056542;28;19928;-76
2024/02/14 04:15:10;;;;;;;;;;;;;;;8.95;100.00;101297.88;5063088;28;19927;-76
2024/02/14 04:17:35;;;;;;;;;;;;;;;8.96;100.00;101296.09;5038440;28;19921;-76
2024/02/14 04:20:00;;;;;;;;;;;;;;;8.95;100.00;101305.69;5043491;28;20120;-76
2024/02/14 04:22:25;;;;;;;;;;;;;;;8.99;100.00;101301.25;5037852;28;19925;-76
2024/02/14 04:24:50;;;;;;;;;;;;;;;9.00;100.00;101297.72;5049111;28;20129;-76
2024/02/14 04:27:16;;;;;;;;;;;;;;;9.00;100.00;101296.00;5038027;28;19921;-76
2024/02/14 04:29:44;;;;;;;;;;;;;;;8.99;100.00;101299.50;5051010;28;20042;-76
2024/02/14 04:32:10;;;;;;;;;;;;;;;9.02;100.00;101303.75;5037831;28;19921;-76
2024/02/14 04:34:38;;;;;;;;;;;;;;;9.03;100.00;101308.09;5055604;28;19923;-76
2024/02/14 04:37:09;;;;;;;;;;;;;;;9.03;100.00;101314.19;5040255;28;20264;-76
2024/02/14 04:39:35;;;;;;;;;;;;;;;9.01;100.00;101310.75;5051428;28;19994;-76
2024/02/14 04:42:01;;;;;;;;;;;;;;;9.06;100.00;101307.16;5038299;28;20072;-76
2024/02/14 04:44:26;;;;;;;;;;;;;;;9.05;100.00;101305.47;5049665;28;19960;-76
2024/02/14 04:46:51;;;;;;;;;;;;;;;9.08;100.00;101310.56;5038014;28;20244;-76
2024/02/14 04:49:16;;;;;;;;;;;;;;;9.06;100.00;101320.22;5045533;28;19920;-76
2024/02/14 04:51:42;;;;;;;;;;;;;;;9.07;100.00;101330.63;5037205;28;19944;-76
2024/02/14 04:54:08;;;;;;;;;;;;;;;9.08;100.00;101321.03;5048174;28;20266;-76
2024/02/14 04:56:33;;;;;;;;;;;;;;;9.09;100.00;101322.75;5044910;28;20140;-76
2024/02/14 04:58:58;;;;;;;;;;;;;;;9.09;100.00;101323.59;5056673;28;19920;-76
2024/02/14 05:01:24;;;;;;;;;;;;;;;9.09;100.00;101317.53;5053950;28;19927;-76
2024/02/14 05:03:49;;;;;;;;;;;;;;;9.08;100.00;101327.13;5051780;28;20023;-76
2024/02/14 05:06:15;;;;;;;;;;;;;;;9.11;100.00;101319.19;5055225;28;19991;-76
2024/02/14 05:08:40;;;;;;;;;;;;;;;9.13;100.00;101333.09;5045977;28;19947;-76
2024/02/14 05:11:05;;;;;;;;;;;;;;;9.17;100.00;101319.03;5047567;28;19916;-75
2024/02/14 05:13:31;;;;;;;;;;;;;;;9.22;100.00;101330.25;5047589;28;20223;-75
2024/02/14 05:15:56;;;;;;;;;;;;;;;9.26;100.00;101332.75;5044360;28;19976;-74
2024/02/14 05:18:21;;;;;;;;;;;;;;;9.24;100.00;101332.81;5048392;28;20139;-75
2024/02/14 05:20:47;;;;;;;;;;;;;;;9.26;100.00;101324.91;5046097;28;19916;-75
2024/02/14 05:23:12;;;;;;;;;;;;;;;9.30;100.00;101331.78;5047582;28;20300;-76
2024/02/14 05:25:37;;;;;;;;;;;;;;;9.30;100.00;101324.78;5046972;28;19927;-75
2024/02/14 05:28:03;;;;;;;;;;;;;;;9.33;100.00;101332.56;5046458;28;19913;-75
2024/02/14 05:30:28;;;;;;;;;;;;;;;9.33;100.00;101324.72;5046417;28;19928;-76
2024/02/14 05:32:54;;;;;;;;;;;;;;;9.34;100.00;101328.19;5045252;28;19921;-75
2024/02/14 05:35:19;;;;;;;;;;;;;;;9.34;100.00;101325.56;5039305;28;19928;-75
2024/02/14 05:37:49;;;;;;;;;;;;;;;9.38;100.00;101338.50;5036266;28;20148;-75
2024/02/14 05:40:14;;;;;;;;;;;;;;;9.43;100.00;101334.91;5064612;28;20143;-75
2024/02/14 05:42:39;;;;;;;;;;;;;;;9.39;100.00;101336.75;5065277;28;19924;-76
2024/02/14 05:45:05;;;;;;;;;;;;;;;9.37;100.00;101339.41;5049913;28;19925;-75
2024/02/14 05:47:31;;;;;;;;;;;;;;;9.37;100.00;101336.78;5053075;28;19971;-77
2024/02/14 05:49:56;;;;;;;;;;;;;;;9.38;100.00;101346.34;5048598;28;20131;-76
2024/02/14 05:52:22;;;;;;;;;;;;;;;9.41;100.00;101338.41;5055768;28;19908;-77
2024/02/14 05:54:47;;;;;;;;;;;;;;;9.40;100.00;101348.91;5054384;28;20234;-75
2024/02/14 05:57:12;;;;;;;;;;;;;;;9.44;100.00;101344.44;5054862;28;19931;-75
2024/02/14 05:59:38;;;;;;;;;;;;;;;9.46;100.00;101353.09;5055450;28;19952;-76
2024/02/14 06:02:05;;;;;;;;;;;;;;;9.40;100.00;101355.03;5054999;28;19916;-76
2024/02/14 06:04:30;;;;;;;;;;;;;;;9.38;100.00;101361.16;5054062;28;20232;-76
2024/02/14 06:06:56;;;;;;;;;;;;;;;9.39;100.00;101355.91;5037302;28;19925;-76
2024/02/14 06:09:21;;;;;;;;;;;;;;;9.35;100.00;101353.41;5047708;28;20196;-76
2024/02/14 06:11:46;;;;;;;;;;;;;;;9.37;100.00;101355.09;5048622;28;19912;-76
2024/02/14 06:14:12;;;;;;;;;;;;;;;9.37;100.00;101357.72;5040890;28;19913;-76
2024/02/14 06:16:38;;;;;;;;;;;;;;;9.34;100.00;101357.78;5051584;28;19920;-76
2024/02/14 06:19:04;;;;;;;;;;;;;;;9.33;100.00;101356.09;5050727;28;20109;-76
2024/02/14 06:21:29;;;;;;;;;;;;;;;9.33;100.00;101357.81;5050103;28;20121;-76
2024/02/14 06:23:55;;;;;;;;;;;;;;;9.32;100.00;101353.50;5049823;28;19927;-76
2024/02/14 06:26:20;;;;;;;;;;;;;;;9.28;100.00;101357.97;5058002;28;19982;-75
2024/02/14 06:28:45;;;;;;;;;;;;;;;9.30;100.00;101361.38;5094284;28;20301;-75
2024/02/14 06:31:11;;;;;;;;;;;;;;;9.29;100.00;101350.97;5076419;28;19923;-75
2024/02/14 06:33:36;;;;;;;;;;;;;;;9.31;100.00;101352.63;5094971;28;20187;-76
2024/02/14 06:36:02;;;;;;;;;;;;;;;9.31;100.00;101368.31;5091257;28;19987;-76
2024/02/14 06:38:27;;;;;;;;;;;;;;;9.32;100.00;101363.97;5094856;28;19954;-76
2024/02/14 06:40:52;;;;;;;;;;;;;;;9.32;100.00;101372.66;5094076;28;19939;-76
2024/02/14 06:43:17;;;;;;;;;;;;;;;9.34;100.00;101375.22;5095100;28;19923;-76
2024/02/14 06:45:43;;;;;;;;;;;;;;;9.33;100.00;101371.78;5094399;28;20219;-76
2024/02/14 06:48:09;;;;;;;;;;;;;;;9.34;100.00;101378.69;5094271;28;20166;-76
2024/02/14 06:50:34;;;;;;;;;;;;;;;9.33;100.00;101371.78;5093692;28;19916;-76
2024/02/14 06:53:00;;;;;;;;;;;;;;;9.32;100.00;101380.50;5096190;28;19943;-76
2024/02/14 06:55:26;;;;;;;;;;;;;;;9.31;100.00;101383.16;5098096;28;20128;-76
2024/02/14 06:57:51;;;;;;;;;;;;;;;9.30;100.00;101381.44;5097895;28;19924;-76
2024/02/14 07:00:16;;;;;;;;;;;;;;;9.32;100.00;101385.72;5096638;28;19916;-76
2024/02/14 07:02:43;;;;;;;;;;;;;;;9.33;100.00;101386.56;5096883;28;19920;-76
2024/02/14 07:05:12;;;;;;;;;;;;;;;9.32;100.00;101395.31;5094223;28;19920;-76
2024/02/14 07:07:37;;;;;;;;;;;;;;;9.30;100.00;101387.53;5096174;28;19931;-76
2024/02/14 07:10:03;;;;;;;;;;;;;;;9.29;100.00;101385.78;5095932;28;19945;-76
2024/02/14 07:12:30;;;;;;;;;;;;;;;9.30;100.00;101392.75;5097339;28;20249;-76
2024/02/14 07:14:55;;;;;;;;;;;;;;;9.29;100.00;101398.00;5097169;28;20147;-76
2024/02/14 07:17:20;;;;;;;;;;;;;;;9.31;100.00;101404.06;5098570;28;19916;-76
2024/02/14 07:19:49;;;;;;;;;;;;;;;9.30;100.00;101411.03;5097356;28;20303;-76
2024/02/14 07:22:15;;;;;;;;;;;;;;;9.31;100.00;101404.91;5097895;28;20140;-76
2024/02/14 07:24:41;;;;;;;;;;;;;;;9.30;100.00;101399.75;5098117;28;19947;-76
2024/02/14 07:27:06;;;;;;;;;;;;;;;9.34;100.00;101406.59;5097139;28;20108;-76
2024/02/14 07:29:31;;;;;;;;;;;;;;;9.33;100.00;101407.47;5097055;28;19994;-76
2024/02/14 07:31:58;;;;;;;;;;;;;;;9.33;100.00;101404.88;5097146;28;19923;-76
2024/02/14 07:34:24;;;;;;;;;;;;;;;9.34;100.00;101410.06;5098070;28;19973;-76
2024/02/14 07:36:49;;;;;;;;;;;;;;;9.33;100.00;101421.44;5097868;28;19923;-76
2024/02/14 07:39:14;;;;;;;;;;;;;;;9.33;100.00;101413.59;5097135;28;19923;-76
2024/02/14 07:41:39;;;;;;;;;;;;;;;9.35;100.00;101409.19;5096654;28;19920;-76
2024/02/14 07:44:05;;;;;;;;;;;;;;;9.38;100.00;101427.38;5095277;28;19923;-76
2024/02/14 07:46:31;;;;;;;;;;;;;;;9.38;100.00;101419.53;5095890;28;19938;-76
2024/02/14 07:48:57;;;;;;;;;;;;;;;9.39;100.00;101423.88;5089579;28;19978;-75
2024/02/14 07:51:22;;;;;;;;;;;;;;;9.42;100.00;101425.53;5096552;28;20211;-75
2024/02/14 07:53:50;;;;;;;;;;;;;;;9.43;100.00;101435.09;5096565;28;20112;-75
2024/02/14 07:56:17;;;;;;;;;;;;;;;9.40;100.00;101424.72;5095418;28;20100;-77
2024/02/14 07:58:43;;;;;;;;;;;;;;;9.42;100.00;101425.53;5077053;28;19991;-77
2024/02/14 08:01:08;;;;;;;;;;;;;;;9.41;100.00;101432.53;5095039;28;20394;-77
2024/02/14 08:03:33;;;;;;;;;;;;;;;9.39;100.00;101423.88;5095245;28;20107;-76
2024/02/14 08:06:00;;;;;;;;;;;;;;;9.39;100.00;101425.63;5094701;28;19920;-76
2024/02/14 08:08:27;;;;;;;;;;;;;;;9.42;100.00;101430.75;5091516;28;19962;-76
2024/02/14 08:10:52;;;;;;;;;;;;;;;9.41;100.00;101426.44;5086247;28;20223;-76
2024/02/14 08:13:18;;;;;;;;;;;;;;;9.40;100.00;101428.22;5093951;28;19926;-76
2024/02/14 08:15:43;;;;;;;;;;;;;;;9.39;100.00;101428.25;5095115;28;20135;-76
2024/02/14 08:18:08;;;;;;;;;;;;;;;9.41;100.00;101436.91;5094467;28;20950;-76
2024/02/14 08:20:33;;;;;;;;;;;;;;;9.43;100.00;101442.09;5092583;28;20424;-76
2024/02/14 08:22:59;;;;;;;;;;;;;;;9.40;100.00;101436.06;5073623;28;19965;-76
2024/02/14 08:25:24;;;;;;;;;;;;;;;9.41;100.00;101439.53;5091695;28;19965;-76
2024/02/14 08:27:49;;;;;;;;;;;;;;;9.40;100.00;101443.03;5090924;28;19924;-76
2024/02/14 08:30:14;;;;;;;;;;;;;;;9.39;100.00;101439.56;5092789;28;20013;-76
2024/02/14 08:32:40;;;;;;;;;;;;;;;9.42;100.00;101441.22;5074460;28;19931;-76
2024/02/14 08:35:07;;;;;;;;;;;;;;;9.44;100.00;101449.03;5092100;28;20045;-76
2024/02/14 08:37:32;;;;;;;;;;;;;;;9.42;100.00;101438.59;5092876;28;20253;-76
2024/02/14 08:39:58;;;;;;;;;;;;;;;9.45;100.00;101440.31;5090800;28;19919;-76
2024/02/14 08:42:23;;;;;;;;;;;;;;;9.44;100.00;101449.03;5091828;28;20160;-76
2024/02/14 08:44:48;;;;;;;;;;;;;;;9.43;100.00;101442.94;5091175;28;19924;-76
2024/02/14 08:47:14;;;;;;;;;;;;;;;9.45;100.00;101448.16;5091820;28;20010;-76
2024/02/14 08:49:42;;;;;;;;;;;;;;;9.45;100.00;101451.59;5094200;28;19931;-76
2024/02/14 08:52:08;;;;;;;;;;;;;;;9.50;100.00;101447.13;5091725;28;19983;-76
2024/02/14 08:54:33;;;;;;;;;;;;;;;9.48;100.00;101459.38;5094234;28;20243;-77
2024/02/14 08:56:59;;;;;;;;;;;;;;;9.49;100.00;101465.47;5107576;28;19931;-77
2024/02/14 08:59:24;;;;;;;;;;;;;;;9.49;100.00;101465.47;5101472;28;20192;-77
2024/02/14 09:01:49;;;;;;;;;;;;;;;9.53;100.00;101449.66;5091198;28;19947;-76
2024/02/14 09:04:15;;;;;;;;;;;;;;;9.52;100.00;101463.63;5090117;28;19931;-76
2024/02/14 09:06:40;;;;;;;;;;;;;;;9.58;100.00;101465.22;5091454;28;19920;-76
2024/02/14 09:09:06;;;;;;;;;;;;;;;9.59;100.00;101465.19;5095601;28;20199;-76
2024/02/14 09:11:32;;;;;;;;;;;;;;;9.59;100.00;101466.94;5091622;28;19920;-76
2024/02/14 09:14:04;;;;;;;;;;;;;;;9.59;100.00;101462.56;5092097;28;19924;-76
2024/02/14 09:16:29;;;;;;;;;;;;;;;9.60;100.00;101464.28;5098222;28;20138;-76
2024/02/14 09:18:54;;;;;;;;;;;;;;;9.60;100.00;101466.03;5089780;28;19986;-76
2024/02/14 09:21:19;;;;;;;;;;;;;;;9.62;100.00;101466.84;5108741;28;19953;-76
2024/02/14 09:23:46;;;;;;;;;;;;;;;9.62;100.00;101472.06;5092741;28;19920;-77
2024/02/14 09:26:12;;;;;;;;;;;;;;;9.64;100.00;101480.75;5107121;28;19919;-77
2024/02/14 09:28:39;;;;;;;;;;;;;;;9.63;100.00;101476.41;5108559;28;20154;-77
2024/02/14 09:31:10;;;;;;;;;;;;;;;9.63;100.00;101476.41;5105681;28;19931;-77
2024/02/14 09:33:36;;;;;;;;;;;;;;;9.65;100.00;101484.22;5111395;28;20170;-77
2024/02/14 09:36:02;;;;;;;;;;;;;;;9.65;100.00;101490.31;5108059;28;19979;-77
2024/02/14 09:38:27;;;;;;;;;;;;;;;9.66;100.00;101472.84;5108615;28;19920;-77
2024/02/14 09:41:01;;;;;;;;;;;;;;;9.67;100.00;101474.56;5107163;28;20223;-77
2024/02/14 09:43:38;;;;;;;;;;;;;;;9.70;100.00;101480.59;5110683;28;20225;-77
2024/02/14 09:46:03;;;;;;;;;;;;;;;9.71;100.00;101474.44;5105092;28;20025;-76
2024/02/14 09:48:29;;;;;;;;;;;;;;;9.71;100.00;101471.81;5109275;28;19954;-76
2024/02/14 09:50:56;;;;;;;;;;;;;;;9.72;100.00;101473.56;5105483;28;19951;-76
2024/02/14 09:53:22;;;;;;;;;;;;;;;9.74;100.00;101478.75;5109519;28;20123;-76
2024/02/14 09:55:48;;;;;;;;;;;;;;;9.78;100.00;101472.53;5106071;28;19919;-76
2024/02/14 09:58:14;;;;;;;;;;;;;;;9.80;100.00;101482.06;5109551;28;19919;-76
2024/02/14 10:00:40;;;;;;;;;;;;;;;9.81;100.00;101477.69;5086338;28;20287;-78
2024/02/14 10:03:06;;;;;;;;;;;;;;;9.83;100.00;101475.88;5108359;28;20143;-76
2024/02/14 10:05:31;;;;;;;;;;;;;;;9.87;100.00;101480.13;5103063;28;19955;-76
2024/02/14 10:07:57;;;;;;;;;;;;;;;9.89;100.00;101480.94;5101570;28;20105;-76
2024/02/14 10:10:23;;;;;;;;;;;;;;;9.93;100.00;101477.34;5103478;28;19959;-76
2024/02/14 10:12:48;;;;;;;;;;;;;;;9.93;100.00;101481.72;5109781;28;19957;-76
2024/02/14 10:15:14;;;;;;;;;;;;;;;9.92;100.00;101477.41;5106694;28;19971;-77
2024/02/14 10:17:40;;;;;;;;;;;;;;;9.94;100.00;101480.81;5108801;28;19920;-77
2024/02/14 10:20:06;;;;;;;;;;;;;;;9.97;100.00;101480.75;5106389;28;19915;-77
2024/02/14 10:22:35;;;;;;;;;;;;;;;9.95;100.00;101472.94;5106525;28;20226;-75
2024/02/14 10:25:01;;;;;;;;;;;;;;;9.99;100.00;101477.16;5105651;28;19966;-76
2024/02/14 10:27:26;;;;;;;;;;;;;;;9.97;100.00;101483.34;5103868;28;19920;-76
2024/02/14 10:29:51;;;;;;;;;;;;;;;10.00;100.00;101483.25;5089241;28;19916;-76
2024/02/14 10:32:16;;;;;;;;;;;;;;;10.01;100.00;101484.97;5107243;28;19927;-76
2024/02/14 10:34:43;;;;;;;;;;;;;;;10.02;100.00;101485.84;5106591;28;19951;-76
2024/02/14 10:37:09;;;;;;;;;;;;;;;10.03;100.00;101482.31;5104121;28;19984;-76
2024/02/14 10:39:36;;;;;;;;;;;;;;;10.04;100.00;101484.91;5108756;28;19907;-76
2024/02/14 10:42:01;;;;;;;;;;;;;;;10.03;100.00;101475.31;5102414;28;19919;-76
2024/02/14 10:44:27;;;;;;;;;;;;;;;10.05;100.00;101486.59;5102916;28;19930;-76
2024/02/14 10:46:52;;;;;;;;;;;;;;;10.02;100.00;101477.97;5105648;28;19969;-76
2024/02/14 10:49:19;;;;;;;;;;;;;;;10.08;100.00;101467.34;5105766;28;20304;-76
2024/02/14 10:51:48;;;;;;;;;;;;;;;10.08;100.00;101462.13;5106594;28;19919;-76
2024/02/14 10:54:16;;;;;;;;;;;;;;;10.10;100.00;101469.03;5108062;28;20234;-78
2024/02/14 10:56:44;;;;;;;;;;;;;;;10.17;100.00;101467.94;5105718;28;20397;-76
2024/02/14 10:59:11;;;;;;;;;;;;;;;10.17;100.00;101467.09;5105501;28;19951;-76
2024/02/14 11:01:37;;;;;;;;;;;;;;;10.19;100.00;101463.50;5106541;28;19947;-76
2024/02/14 11:04:04;;;;;;;;;;;;;;;10.21;100.00;101476.56;5104531;28;19923;-76
2024/02/14 11:06:30;;;;;;;;;;;;;;;10.21;100.00;101473.09;5106128;28;20169;-76
2024/02/14 11:09:00;;;;;;;;;;;;;;;10.22;100.00;101469.56;5108604;28;19974;-76
2024/02/14 11:11:29;;;;;;;;;;;;;;;10.22;100.00;101462.56;5108771;28;19919;-76
2024/02/14 11:13:55;;;;;;;;;;;;;;;10.29;100.00;101465.88;5105531;28;19927;-76
2024/02/14 11:16:25;;;;;;;;;;;;;;;10.27;100.00;101465.91;5105241;28;20203;-76
2024/02/14 11:18:50;;;;;;;;;;;;;;;10.23;100.00;101469.53;5105067;28;19950;-76
2024/02/14 11:21:16;;;;;;;;;;;;;;;10.23;100.00;101468.66;5106009;28;20203;-76
2024/02/14 11:23:42;;;;;;;;;;;;;;;10.24;100.00;101462.50;5102536;28;19928;-76
2024/02/14 11:26:15;;;;;;;;;;;;;;;10.24;100.00;101460.78;5102837;28;19949;-76
2024/02/14 11:28:40;;;;;;;;;;;;;;;10.26;100.00;101463.31;5108536;28;19935;-76
2024/02/14 11:31:09;;;;;;;;;;;;;;;10.26;100.00;101455.47;5106279;28;19920;-77
2024/02/14 11:33:35;;;;;;;;;;;;;;;10.26;100.00;101463.31;5109451;28;19963;-77
2024/02/14 11:36:11;;;;;;;;;;;;;;;10.30;100.00;101449.25;5109384;28;20235;-77
2024/02/14 11:38:37;;;;;;;;;;;;;;;10.27;100.00;101454.59;5107293;28;19930;-77
2024/02/14 11:41:03;;;;;;;;;;;;;;;10.26;100.00;101451.13;5109876;28;19999;-77
2024/02/14 11:43:29;;;;;;;;;;;;;;;10.25;100.00;101452.00;5110225;28;20349;-77
2024/02/14 11:45:54;;;;;;;;;;;;;;;10.23;100.00;101447.72;5098774;28;19951;-77
2024/02/14 11:48:20;;;;;;;;;;;;;;;10.24;100.00;101449.44;5096879;28;19970;-77
2024/02/14 11:50:46;;;;;;;;;;;;;;;10.29;100.00;101450.16;5091208;28;19957;-77
2024/02/14 11:53:12;;;;;;;;;;;;;;;10.31;100.00;101453.63;5099577;28;19920;-77
2024/02/14 11:55:38;;;;;;;;;;;;;;;10.28;100.00;101453.69;5098794;28;19946;-77
2024/02/14 11:58:13;;;;;;;;;;;;;;;10.28;100.00;101445.84;5096839;28;19919;-77
2024/02/14 12:00:48;;;;;;;;;;;;;;;10.27;100.00;101444.97;5098103;28;20135;-77
2024/02/14 12:03:21;;;;;;;;;;;;;;;10.27;100.00;101446.72;5078471;28;20155;-77
2024/02/14 12:05:47;;;;;;;;;;;;;;;10.24;100.00;101452.94;5096441;28;19923;-77
2024/02/14 12:08:14;;;;;;;;;;;;;;;10.25;100.00;101451.16;5095131;28;20219;-77
2024/02/14 12:10:42;;;;;;;;;;;;;;;10.26;100.00;101456.34;5096305;28;19920;-77
2024/02/14 12:13:11;;;;;;;;;;;;;;;10.26;100.00;101442.38;5095694;28;19943;-77
2024/02/14 12:15:40;;;;;;;;;;;;;;;10.30;100.00;101454.50;5089178;28;20299;-77
2024/02/14 12:18:06;;;;;;;;;;;;;;;10.32;100.00;101445.72;5094049;28;19947;-77
2024/02/14 12:20:32;;;;;;;;;;;;;;;10.30;100.00;101444.88;5096199;28;20135;-77
2024/02/14 12:22:58;;;;;;;;;;;;;;;10.32;100.00;101439.63;5096983;28;19924;-77
2024/02/14 12:25:23;;;;;;;;;;;;;;;10.32;100.00;101434.41;5097250;28;19970;-77
2024/02/14 12:27:51;;;;;;;;;;;;;;;10.32;100.00;101445.72;5097425;28;19947;-77